Aeroporto :
LOGIN :

Iscrizione | Disclaimer

   EN    FR    IT 

 










Sommario :    VFR   VFR Marginale   IFR   IFR Intensivo   IFR Molto Intensivo
Visibilità : 
Base nubi : 
>= 8 km
>= 3000ft
5 / 8 km
1000 / 3000 ft
1500m / 5 km
500 / 1000 ft
800 / 1500m
200 / 500 ft
< 800m
< 200 ft
Simboli :   Temporali  Nebbia  Neve Forte  Precipitazioni Forti  Vento > 20 kt
SIGMETs :   Varie  Temporali  Ghiacco  Turbolenza  Onda orograficha  Ceneri Vulcaniche






- Altitudine del aeroporto : 9 ft
- Codice IATA : MIR


DTMB - Habib Bourguliba Int. Monastir

ULTIMO METAR :
  • 071100Z 01009KT 9999 FEW026 17/12 Q1026 NOSIG

METARs OBSOLETI :
  • 071030Z 36008KT 9999 FEW026 17/12 Q1026 NOSIG
  • 071000Z 35007KT 320V020 9999 FEW026 17/12 Q1026 NOSIG
  • 070930Z 35007KT 9999 FEW026 17/12 Q1026 NOSIG
  • 070900Z 01008KT 9999 FEW026 16/12 Q1026 NOSIG
  • 070830Z 35008KT 9999 FEW026 16/12 Q1026 NOSIG

TAF TAF DTMB
Valido dal 07 a 06 ore il 08 a 06 ore UTC


070500Z 0706/0806 26004KT CAVOK
BECMG 0712/0714 06010KT
BECMG 0716/0718 12010KT
BECMG 0721/0723 18002KT
PROB30 0804/0806 2000 BR



MetMap, La meteo Aeronautica in un colpo d'occhio ! - Copyright ORBIFLY Dicembre 2007 - Disclaimer

ORBIFLY MET'MAP TEAM :

Programmazione e sviluppo : Alexandra Zaïnal
Concezione : Baudouin d'Aumeries
Aiuto per la programmazione : Marc-Olivier Méhu
Supporto tecnico e logistico : Manuel Goepfert
Aiuto per la traduzione : Arnaldo La Scala

Contatto : metmap@orbifly.com




FONTI E CREDITI :

   NOAA